Time;durP1;ratioP1;P1;durP2;ratioP2;P2;SDS_P1;SDS_P2;PMS_P1;PMS_P2;Temp;Humidity;BMP_temperature;BMP_pressure;BME280_temperature;BME280_humidity;BME280_pressure;Samples;Min_cycle;Max_cycle;Signal;HPM_P1;HPM_P2
2021/11/05 00:00:09;;;;;;;28.45;11.48;;;;;;;4.34;100.00;101561.75;5182583;28;20382;-74
2021/11/05 00:02:39;;;;;;;30.17;11.60;;;;;;;4.42;100.00;101561.22;5200372;28;20112;-72
2021/11/05 00:05:10;;;;;;;21.77;10.55;;;;;;;4.41;100.00;101560.34;5181860;28;20385;-73
2021/11/05 00:07:41;;;;;;;23.67;10.10;;;;;;;4.58;100.00;101567.13;5198992;28;20025;-74
2021/11/05 00:10:11;;;;;;;20.48;8.95;;;;;;;4.64;100.00;101571.16;5199840;28;20028;-74
2021/11/05 00:12:43;;;;;;;25.67;8.65;;;;;;;4.62;100.00;101567.78;5199630;28;20017;-74
2021/11/05 00:15:14;;;;;;;27.38;10.95;;;;;;;4.56;100.00;101577.00;5200106;28;20025;-73
2021/11/05 00:17:45;;;;;;;17.23;8.38;;;;;;;4.50;100.00;101574.78;5200337;28;20018;-73
2021/11/05 00:20:16;;;;;;;20.65;8.32;;;;;;;4.49;100.00;101577.56;5203582;28;20083;-74
2021/11/05 00:22:46;;;;;;;20.17;8.00;;;;;;;4.60;100.00;101573.16;5203790;28;20033;-73
2021/11/05 00:25:17;;;;;;;14.80;5.55;;;;;;;4.70;100.00;101591.13;5203681;28;20064;-73
2021/11/05 00:27:48;;;;;;;10.98;5.45;;;;;;;4.74;100.00;101593.44;5203018;28;20069;-73
2021/11/05 00:30:18;;;;;;;11.27;5.00;;;;;;;4.67;100.00;101589.53;5185846;28;20029;-74
2021/11/05 00:32:49;;;;;;;13.55;5.47;;;;;;;4.57;100.00;101591.16;5202955;28;20027;-74
2021/11/05 00:35:19;;;;;;;12.70;4.65;;;;;;;4.50;100.00;101603.16;5203375;28;20017;-74
2021/11/05 00:37:50;;;;;;;9.68;4.60;;;;;;;4.39;100.00;101599.47;5205331;28;20029;-74
2021/11/05 00:40:21;;;;;;;14.00;5.63;;;;;;;4.26;100.00;101603.94;5208510;28;20021;-73
2021/11/05 00:42:52;;;;;;;10.20;5.25;;;;;;;4.14;100.00;101612.75;5202888;28;20041;-75
2021/11/05 00:45:23;;;;;;;17.92;5.70;;;;;;;4.03;100.00;101628.59;5202834;28;20175;-75
2021/11/05 00:47:53;;;;;;;11.10;5.15;;;;;;;3.92;100.00;101629.31;5203016;28;20013;-75
2021/11/05 00:50:24;;;;;;;14.65;5.25;;;;;;;3.84;100.00;101629.81;5203528;28;20083;-74
2021/11/05 00:52:55;;;;;;;17.67;6.90;;;;;;;3.78;100.00;101642.66;5203128;28;20094;-74
2021/11/05 00:55:25;;;;;;;13.45;6.22;;;;;;;3.70;100.00;101632.56;5184864;28;20370;-74
2021/11/05 00:57:56;;;;;;;16.55;6.80;;;;;;;3.63;100.00;101640.09;5202673;28;20111;-74
2021/11/05 01:00:27;;;;;;;23.45;7.57;;;;;;;3.58;100.00;101638.69;5202876;28;20030;-74
2021/11/05 01:02:57;;;;;;;16.02;6.22;;;;;;;3.54;100.00;101650.44;5203137;28;20033;-73
2021/11/05 01:05:28;;;;;;;20.05;7.55;;;;;;;3.47;100.00;101641.22;5203117;28;20502;-74
2021/11/05 01:07:59;;;;;;;15.75;6.95;;;;;;;3.43;100.00;101652.97;5202172;28;20026;-74
2021/11/05 01:10:30;;;;;;;21.35;8.77;;;;;;;3.46;100.00;101650.09;5202778;28;20122;-74
2021/11/05 01:13:02;;;;;;;25.02;8.35;;;;;;;3.43;100.00;101660.94;5202690;28;20017;-74
2021/11/05 01:15:33;;;;;;;21.42;8.68;;;;;;;3.34;100.00;101665.88;5202753;28;20033;-74
2021/11/05 01:18:04;;;;;;;89.78;12.05;;;;;;;3.26;100.00;101664.66;5202436;28;20032;-74
2021/11/05 01:20:34;;;;;;;22.13;9.82;;;;;;;3.17;100.00;101670.56;5202476;28;20025;-73
2021/11/05 01:23:07;;;;;;;26.90;11.00;;;;;;;3.09;100.00;101671.06;5202521;28;20059;-72
2021/11/05 01:25:37;;;;;;;26.63;11.88;;;;;;;3.06;100.00;101674.78;5202930;28;20060;-74
2021/11/05 01:28:08;;;;;;;34.10;13.30;;;;;;;3.07;100.00;101665.84;5202492;28;20670;-74
2021/11/05 01:30:38;;;;;;;33.55;13.95;;;;;;;3.07;100.00;101672.97;5202131;28;20036;-73
2021/11/05 01:33:11;;;;;;;165.38;21.73;;;;;;;3.01;100.00;101674.22;5202293;28;20037;-73
2021/11/05 01:35:42;;;;;;;35.03;14.02;;;;;;;2.95;100.00;101679.88;5202802;28;20033;-72
2021/11/05 01:38:12;;;;;;;37.83;15.05;;;;;;;2.90;100.00;101681.13;5202432;28;20398;-73
2021/11/05 01:40:44;;;;;;;37.47;16.35;;;;;;;2.87;100.00;101684.81;5202595;28;20024;-73
2021/11/05 01:43:15;;;;;;;45.28;17.38;;;;;;;2.89;100.00;101685.56;5202875;28;20020;-72
2021/11/05 01:45:47;;;;;;;39.85;16.73;;;;;;;2.97;100.00;101687.75;5185239;28;20029;-72
2021/11/05 01:48:18;;;;;;;49.10;19.13;;;;;;;3.05;100.00;101694.25;5201648;28;20062;-73
2021/11/05 01:50:48;;;;;;;52.38;21.50;;;;;;;3.12;100.00;101694.72;5202047;28;20048;-72
2021/11/05 01:53:19;;;;;;;56.67;19.52;;;;;;;3.16;100.00;101696.22;5204381;28;20389;-73
2021/11/05 01:55:49;;;;;;;52.40;20.63;;;;;;;3.21;100.00;101694.13;5203888;28;20037;-72
2021/11/05 01:58:20;;;;;;;55.65;21.85;;;;;;;3.29;100.00;101696.28;5201442;28;20462;-73
2021/11/05 02:00:51;;;;;;;52.45;22.38;;;;;;;3.38;100.00;101691.25;5201301;28;20037;-73
2021/11/05 02:03:21;;;;;;;56.50;23.77;;;;;;;3.48;100.00;101698.63;5201413;28;20030;-72
2021/11/05 02:05:53;;;;;;;73.35;26.75;;;;;;;3.58;100.00;101697.06;5201611;28;20021;-73
2021/11/05 02:08:24;;;;;;;56.90;24.05;;;;;;;3.62;100.00;101715.34;5200613;28;20025;-73
2021/11/05 02:10:56;;;;;;;67.45;26.98;;;;;;;3.66;100.00;101710.66;5201241;28;20478;-72
2021/11/05 02:13:27;;;;;;;56.85;23.17;;;;;;;3.65;100.00;101719.59;5201689;28;20564;-72
2021/11/05 02:15:59;;;;;;;47.53;20.00;;;;;;;3.63;100.00;101721.50;5201493;28;20074;-73
2021/11/05 02:18:30;;;;;;;51.35;21.63;;;;;;;3.56;100.00;101721.03;5201228;28;20092;-72
2021/11/05 02:21:02;;;;;;;49.35;18.58;;;;;;;3.48;100.00;101725.16;5201286;28;20029;-72
2021/11/05 02:23:32;;;;;;;46.75;19.33;;;;;;;3.39;100.00;101718.63;5183530;28;20022;-72
2021/11/05 02:26:03;;;;;;;36.22;16.85;;;;;;;3.33;100.00;101725.19;5200988;28;20051;-73
2021/11/05 02:28:37;;;;;;;40.15;19.17;;;;;;;3.26;100.00;101725.66;5200673;28;20033;-73
2021/11/05 02:31:07;;;;;;;40.08;17.67;;;;;;;3.18;100.00;101720.00;5200765;28;20024;-73
2021/11/05 02:33:38;;;;;;;76.85;18.88;;;;;;;3.11;100.00;101722.16;5200441;28;20029;-73
2021/11/05 02:36:08;;;;;;;47.50;18.42;;;;;;;3.04;100.00;101728.81;5200696;28;20386;-72
2021/11/05 02:38:40;;;;;;;37.40;17.25;;;;;;;2.97;100.00;101738.13;5209080;28;20944;-73
2021/11/05 02:41:22;;;;;;;34.67;15.85;;;;;;;2.92;100.00;101735.75;5201019;28;20128;-72
2021/11/05 02:43:53;;;;;;;35.15;16.20;;;;;;;2.90;100.00;101734.97;5199902;28;20093;-72
2021/11/05 02:46:23;;;;;;;36.35;16.15;;;;;;;2.84;100.00;101738.00;5200254;28;20035;-72
2021/11/05 02:48:57;;;;;;;45.10;18.85;;;;;;;2.83;100.00;101739.81;5200622;28;20425;-71
2021/11/05 02:51:29;;;;;;;36.97;16.90;;;;;;;2.78;100.00;101736.59;5200638;28;20036;-71
2021/11/05 02:54:01;;;;;;;41.13;17.33;;;;;;;2.70;100.00;101743.31;5201400;28;20029;-72
2021/11/05 02:56:32;;;;;;;40.22;16.40;;;;;;;2.63;100.00;101748.13;5183036;28;20156;-73
2021/11/05 02:59:04;;;;;;;38.90;16.60;;;;;;;2.63;100.00;101755.22;5200034;28;20044;-73
2021/11/05 03:01:36;;;;;;;36.83;17.83;;;;;;;2.59;100.00;101754.56;5200582;28;20091;-73
2021/11/05 03:04:09;;;;;;;36.17;16.80;;;;;;;2.58;100.00;101760.81;5200209;28;20560;-71
2021/11/05 03:06:43;;;;;;;38.35;17.65;;;;;;;2.58;100.00;101751.06;5199286;28;20025;-73
2021/11/05 03:09:17;;;;;;;43.70;17.75;;;;;;;2.65;100.00;101759.47;5199893;28;20430;-73
2021/11/05 03:11:48;;;;;;;34.30;17.33;;;;;;;2.62;100.00;101764.97;5186659;28;20475;-73
2021/11/05 03:14:19;;;;;;;36.28;17.23;;;;;;;2.57;100.00;101759.94;5200163;28;20394;-74
2021/11/05 03:16:51;;;;;;;42.60;15.45;;;;;;;2.50;100.00;101765.69;5200172;28;20021;-73
2021/11/05 03:19:23;;;;;;;402.45;33.72;;;;;;;2.41;100.00;101771.53;5199198;28;20119;-73
2021/11/05 03:21:53;;;;;;;161.95;24.08;;;;;;;2.32;100.00;101780.91;5199492;28;20092;-73
2021/11/05 03:24:24;;;;;;;51.30;18.45;;;;;;;2.24;100.00;101781.34;5199831;28;20025;-72
2021/11/05 03:26:55;;;;;;;38.40;17.77;;;;;;;2.21;100.00;101785.94;5199630;28;20057;-72
2021/11/05 03:29:25;;;;;;;43.33;18.60;;;;;;;2.20;100.00;101787.75;5200075;28;20025;-72
2021/11/05 03:31:56;;;;;;;135.63;22.63;;;;;;;2.22;100.00;101787.69;5199565;28;20033;-71
2021/11/05 03:34:26;;;;;;;120.20;18.92;;;;;;;2.23;100.00;101790.22;5200097;28;20034;-72
2021/11/05 03:36:57;;;;;;;46.83;19.08;;;;;;;2.26;100.00;101799.78;5200092;28;20018;-72
2021/11/05 03:39:27;;;;;;;50.22;18.98;;;;;;;2.28;100.00;101806.69;5208763;28;20163;-72
2021/11/05 03:41:58;;;;;;;49.50;20.35;;;;;;;2.39;100.00;101810.50;5200219;28;20032;-72
2021/11/05 03:44:29;;;;;;;50.35;20.83;;;;;;;2.43;100.00;101807.59;5182530;28;20033;-72
2021/11/05 03:47:00;;;;;;;51.00;22.15;;;;;;;2.49;100.00;101811.66;5199893;28;20381;-72
2021/11/05 03:49:31;;;;;;;55.17;21.38;;;;;;;2.49;100.00;101814.31;5199959;28;20030;-72
2021/11/05 03:52:01;;;;;;;50.92;19.90;;;;;;;2.47;100.00;101819.72;5199651;28;20030;-72
2021/11/05 03:54:32;;;;;;;43.10;19.60;;;;;;;2.51;100.00;101823.91;5203232;28;20112;-71
2021/11/05 03:57:03;;;;;;;43.78;20.38;;;;;;;2.62;100.00;101831.22;5203465;28;20178;-72
2021/11/05 03:59:33;;;;;;;52.22;22.40;;;;;;;2.71;100.00;101830.66;5202915;28;20025;-71
2021/11/05 04:02:04;;;;;;;47.50;21.15;;;;;;;2.78;100.00;101833.78;5203427;28;20471;-71
2021/11/05 04:04:34;;;;;;;56.83;21.75;;;;;;;2.84;100.00;101841.38;5203813;28;20032;-71
2021/11/05 04:07:05;;;;;;;50.22;21.08;;;;;;;2.90;100.00;101838.34;5208523;28;20039;-71
2021/11/05 04:09:35;;;;;;;75.75;24.88;;;;;;;2.99;100.00;101851.03;5203454;28;20029;-71
2021/11/05 04:12:07;;;;;;;57.17;20.75;;;;;;;3.10;100.00;101861.00;5203564;28;20113;-71
2021/11/05 04:14:37;;;;;;;61.00;23.17;;;;;;;3.15;100.00;101858.91;5203346;28;20397;-72
2021/11/05 04:17:08;;;;;;;117.32;25.88;;;;;;;3.19;100.00;101864.91;5203484;28;20021;-71
2021/11/05 04:19:40;;;;;;;50.88;19.75;;;;;;;3.18;100.00;101871.16;5203274;28;20108;-71
2021/11/05 04:22:11;;;;;;;56.35;20.90;;;;;;;3.17;100.00;101872.94;5204228;28;20025;-71
2021/11/05 04:24:42;;;;;;;62.55;21.73;;;;;;;3.17;100.00;101878.25;5203756;28;20029;-71
2021/11/05 04:27:12;;;;;;;55.05;19.10;;;;;;;3.18;100.00;101884.41;5203703;28;20134;-72
2021/11/05 04:29:43;;;;;;;48.80;19.10;;;;;;;3.16;100.00;101887.13;5203272;28;20036;-72
2021/11/05 04:32:14;;;;;;;48.63;18.10;;;;;;;3.17;100.00;101894.16;5203434;28;20028;-71
2021/11/05 04:34:44;;;;;;;47.13;17.88;;;;;;;3.25;100.00;101906.94;5203252;28;20145;-72
2021/11/05 04:37:15;;;;;;;54.47;20.00;;;;;;;3.28;100.00;101899.66;5202399;28;20277;-73
2021/11/05 04:39:45;;;;;;;64.43;19.27;;;;;;;3.29;100.00;101903.16;5211502;28;20561;-72
2021/11/05 04:42:16;;;;;;;83.63;19.65;;;;;;;3.24;100.00;101902.59;5203391;28;20025;-72
2021/11/05 04:44:46;;;;;;;52.28;16.67;;;;;;;3.19;100.00;101908.16;5202937;28;20018;-72
2021/11/05 04:47:17;;;;;;;51.35;16.52;;;;;;;3.22;100.00;101913.31;5202807;28;20029;-71
2021/11/05 04:49:47;;;;;;;47.38;18.70;;;;;;;3.27;100.00;101913.88;5202932;28;20097;-71
2021/11/05 04:52:18;;;;;;;48.80;17.48;;;;;;;3.30;100.00;101921.63;5202605;28;20025;-73
2021/11/05 04:54:48;;;;;;;52.38;17.88;;;;;;;3.35;100.00;101924.00;5185259;28;20021;-72
2021/11/05 04:57:20;;;;;;;60.20;18.83;;;;;;;3.41;100.00;101925.44;5202412;28;20067;-73
2021/11/05 04:59:51;;;;;;;49.92;17.60;;;;;;;3.45;100.00;101932.25;5202873;28;20029;-72
2021/11/05 05:02:21;;;;;;;64.55;18.30;;;;;;;3.51;100.00;101934.53;5202999;28;20406;-72
2021/11/05 05:04:52;;;;;;;53.47;18.98;;;;;;;3.58;100.00;101938.53;5201660;28;20026;-71
2021/11/05 05:07:22;;;;;;;56.55;17.33;;;;;;;3.66;100.00;101946.84;5202316;28;20030;-71
2021/11/05 05:09:53;;;;;;;62.08;17.98;;;;;;;3.73;100.00;101947.34;5202234;28;20026;-75
2021/11/05 05:12:23;;;;;;;63.20;20.25;;;;;;;3.78;100.00;101948.75;5202590;28;20099;-75
2021/11/05 05:14:54;;;;;;;56.95;19.70;;;;;;;3.83;100.00;101949.31;5202261;28;20451;-73
2021/11/05 05:17:24;;;;;;;66.85;19.02;;;;;;;3.83;100.00;101951.97;5200750;28;20041;-73
2021/11/05 05:19:55;;;;;;;55.95;19.15;;;;;;;3.81;100.00;101953.84;5202141;28;20044;-73
2021/11/05 05:22:26;;;;;;;55.95;17.95;;;;;;;3.76;100.00;101955.94;5202325;28;20076;-74
2021/11/05 05:24:56;;;;;;;66.50;18.38;;;;;;;3.74;100.00;101967.63;5202134;28;20108;-74
2021/11/05 05:27:27;;;;;;;54.25;18.55;;;;;;;3.64;100.00;101968.19;5202182;28;20030;-72
2021/11/05 05:29:58;;;;;;;64.80;20.45;;;;;;;3.61;100.00;101975.47;5202189;28;20032;-71
2021/11/05 05:32:28;;;;;;;54.05;16.98;;;;;;;3.57;100.00;101977.47;5202231;28;20105;-72
2021/11/05 05:34:59;;;;;;;50.80;18.42;;;;;;;3.58;100.00;101975.69;5196598;28;20083;-71
2021/11/05 05:37:29;;;;;;;64.78;19.13;;;;;;;3.57;100.00;101987.25;5199338;28;20021;-71
2021/11/05 05:40:00;;;;;;;54.60;19.23;;;;;;;3.54;100.00;101990.91;5194704;28;20074;-72
2021/11/05 05:42:30;;;;;;;50.60;19.15;;;;;;;3.50;100.00;101991.19;5201231;28;20492;-74
2021/11/05 05:45:01;;;;;;;65.47;21.23;;;;;;;3.43;100.00;101996.03;5200396;28;20037;-73
2021/11/05 05:47:32;;;;;;;91.40;33.42;;;;;;;3.38;100.00;101993.66;5200917;28;20225;-71
2021/11/05 05:50:05;;;;;;;111.82;41.13;;;;;;;3.36;100.00;101997.31;5201250;28;20386;-71
2021/11/05 05:52:35;;;;;;;103.80;38.28;;;;;;;3.35;100.00;102009.75;5201191;28;20482;-71
2021/11/05 05:55:09;;;;;;;88.47;33.53;;;;;;;3.35;100.00;102004.44;5201123;28;20056;-72
2021/11/05 05:57:40;;;;;;;99.53;32.08;;;;;;;3.38;100.00;102009.56;5200626;28;20040;-74
2021/11/05 06:00:14;;;;;;;89.70;37.33;;;;;;;3.38;100.00;102017.53;5200696;28;20075;-72
2021/11/05 06:02:46;;;;;;;98.32;33.20;;;;;;;3.36;100.00;102015.91;5201035;28;20029;-74
2021/11/05 06:05:16;;;;;;;132.13;38.47;;;;;;;3.34;100.00;102013.34;5200510;28;20029;-72
2021/11/05 06:07:47;;;;;;;82.15;25.15;;;;;;;3.32;100.00;102017.03;5200408;28;20203;-72
2021/11/05 06:10:17;;;;;;;84.95;24.38;;;;;;;3.29;100.00;102031.31;5200733;28;20033;-72
2021/11/05 06:12:48;;;;;;;96.00;26.13;;;;;;;3.27;100.00;102025.28;5201599;28;20013;-72
2021/11/05 06:15:18;;;;;;;83.82;23.30;;;;;;;3.27;100.00;102032.38;5200820;28;20037;-72
2021/11/05 06:17:49;;;;;;;91.40;24.25;;;;;;;3.27;100.00;102037.69;5200691;28;20072;-72
2021/11/05 06:20:20;;;;;;;87.47;24.25;;;;;;;3.28;100.00;102040.22;5200994;28;20033;-73
2021/11/05 06:22:50;;;;;;;107.50;34.88;;;;;;;3.34;100.00;102044.31;5200506;28;20037;-73
2021/11/05 06:25:21;;;;;;;87.72;25.08;;;;;;;3.42;100.00;102046.53;5200680;28;20441;-72
2021/11/05 06:28:01;;;;;;;104.78;24.05;;;;;;;3.43;100.00;102048.25;5200162;28;20064;-72
2021/11/05 06:30:32;;;;;;;88.75;25.70;;;;;;;3.37;100.00;102049.47;5200260;28;20022;-73
2021/11/05 06:33:02;;;;;;;173.10;24.05;;;;;;;3.29;100.00;102041.94;5200545;28;20033;-72
2021/11/05 06:35:33;;;;;;;68.70;19.15;;;;;;;3.18;100.00;102051.47;5200608;28;20112;-73
2021/11/05 06:38:04;;;;;;;161.27;49.20;;;;;;;3.09;100.00;102058.16;5199977;28;20152;-73
2021/11/05 06:40:34;;;;;;;103.53;30.58;;;;;;;3.03;100.00;102062.00;5200593;28;20265;-72
2021/11/05 06:43:05;;;;;;;91.10;25.00;;;;;;;2.99;100.00;102067.56;5200167;28;20026;-73
2021/11/05 06:45:35;;;;;;;98.18;25.65;;;;;;;2.96;100.00;102065.97;5199866;28;20029;-72
2021/11/05 06:48:06;;;;;;;139.55;24.83;;;;;;;2.90;100.00;102071.59;5200241;28;20025;-72
2021/11/05 06:50:38;;;;;;;70.47;21.08;;;;;;;2.83;100.00;102078.19;5200529;28;20037;-72
2021/11/05 06:53:10;;;;;;;82.78;22.55;;;;;;;2.91;100.00;102088.34;5200756;28;20018;-72
2021/11/05 06:55:40;;;;;;;95.70;22.67;;;;;;;2.91;100.00;102091.00;5200141;28;20030;-74
2021/11/05 06:58:11;;;;;;;86.55;21.73;;;;;;;2.87;100.00;102092.16;5200001;28;20040;-72
2021/11/05 07:00:42;;;;;;;77.95;19.92;;;;;;;2.83;100.00;102107.34;5199804;28;20021;-71
2021/11/05 07:03:13;;;;;;;167.82;51.47;;;;;;;2.82;100.00;102109.16;5200122;28;20038;-72
2021/11/05 07:05:43;;;;;;;110.88;29.70;;;;;;;2.80;100.00;102113.66;5200362;28;20017;-71
2021/11/05 07:08:14;;;;;;;87.75;24.95;;;;;;;2.81;100.00;102115.41;5199712;28;20203;-72
2021/11/05 07:10:46;;;;;;;140.23;41.35;;;;;;;2.87;100.00;102116.00;5199440;28;20037;-72
2021/11/05 07:13:17;;;;;;;100.78;27.65;;;;;;;2.90;100.00;102119.31;5200295;28;20010;-72
2021/11/05 07:15:48;;;;;;;110.35;25.08;;;;;;;2.99;100.00;102129.41;5199970;28;20052;-72
2021/11/05 07:18:19;;;;;;;92.03;24.98;;;;;;;3.07;100.00;102142.25;5199740;28;20021;-74
2021/11/05 07:20:50;;;;;;;106.22;29.70;;;;;;;3.17;100.00;102135.47;5199745;28;20029;-72
2021/11/05 07:23:21;;;;;;;104.95;27.35;;;;;;;3.26;100.00;102132.31;5199891;28;20018;-72
2021/11/05 07:25:51;;;;;;;94.05;26.42;;;;;;;3.37;100.00;102143.16;5200185;28;20037;-72
2021/11/05 07:28:22;;;;;;;90.88;27.25;;;;;;;3.60;100.00;102146.25;5199253;28;20021;-72
2021/11/05 07:30:53;;;;;;;80.05;22.33;;;;;;;3.75;100.00;102148.00;5200054;28;20315;-72
2021/11/05 07:33:23;;;;;;;107.40;25.45;;;;;;;4.00;100.00;102152.72;5199739;28;20449;-72
2021/11/05 07:35:54;;;;;;;70.53;22.30;;;;;;;4.38;100.00;102157.53;5200473;28;20021;-73
2021/11/05 07:38:24;;;;;;;69.03;19.55;;;;;;;4.82;100.00;102169.81;5204756;28;20083;-72
2021/11/05 07:40:55;;;;;;;55.88;18.67;;;;;;;5.11;100.00;102171.50;5199806;28;20091;-72
2021/11/05 07:43:26;;;;;;;53.22;15.45;;;;;;;5.48;100.00;102176.25;5199821;28;20025;-73
2021/11/05 07:45:56;;;;;;;55.78;14.85;;;;;;;5.74;100.00;102177.19;5199224;28;20080;-72
2021/11/05 07:48:27;;;;;;;45.05;14.45;;;;;;;5.87;100.00;102176.25;5199343;28;20099;-73
2021/11/05 07:50:57;;;;;;;58.15;22.13;;;;;;;6.23;100.00;102185.41;5199848;28;20056;-73
2021/11/05 07:53:28;;;;;;;39.05;14.85;;;;;;;6.44;100.00;102191.91;5198037;28;20026;-73
2021/11/05 07:55:58;;;;;;;35.83;10.30;;;;;;;6.58;100.00;102201.63;5183375;28;20509;-72
2021/11/05 07:58:29;;;;;;;32.60;10.02;;;;;;;7.00;100.00;102191.53;5197144;28;20028;-74
2021/11/05 08:01:00;;;;;;;24.60;9.35;;;;;;;7.23;100.00;102196.06;5198348;28;20022;-73
2021/11/05 08:03:30;;;;;;;21.77;9.13;;;;;;;7.89;100.00;102209.88;5198259;28;20582;-72
2021/11/05 08:06:01;;;;;;;23.17;8.57;;;;;;;7.99;100.00;102208.19;5197838;28;20104;-73
2021/11/05 08:08:32;;;;;;;22.80;7.80;;;;;;;8.05;100.00;102214.91;5197500;28;20497;-72
2021/11/05 08:11:03;;;;;;;19.33;7.55;;;;;;;8.27;100.00;102216.78;5198091;28;20059;-73
2021/11/05 08:13:34;;;;;;;22.83;8.45;;;;;;;8.34;100.00;102215.34;5198046;28;20076;-73
2021/11/05 08:16:04;;;;;;;23.02;7.43;;;;;;;8.66;100.00;102220.03;5197507;28;20028;-74
2021/11/05 08:18:35;;;;;;;22.08;7.30;;;;;;;9.02;100.00;102224.28;5197457;28;20017;-73
2021/11/05 08:21:06;;;;;;;21.48;7.13;;;;;;;9.18;100.00;102232.78;5198146;28;20032;-73
2021/11/05 08:23:37;;;;;;;22.08;7.18;;;;;;;9.13;100.00;102247.53;5197653;28;20037;-73
2021/11/05 08:26:07;;;;;;;21.77;6.82;;;;;;;8.72;100.00;102240.94;5197556;28;20029;-73
2021/11/05 08:28:40;;;;;;;23.88;7.03;;;;;;;8.79;100.00;102242.19;5180201;28;20533;-73
2021/11/05 08:31:13;;;;;;;24.20;6.65;;;;;;;8.92;100.00;102252.78;5198419;28;20064;-73
2021/11/05 08:33:45;;;;;;;18.83;7.10;;;;;;;9.34;100.00;102252.03;5198023;28;20478;-73
2021/11/05 08:36:19;;;;;;;17.15;6.47;;;;;;;9.68;100.00;102257.28;5179360;28;20018;-73
2021/11/05 08:38:49;;;;;;;23.33;6.65;;;;;;;10.04;100.00;102256.09;5199101;28;20044;-73
2021/11/05 08:41:20;;;;;;;17.35;6.70;;;;;;;10.54;100.00;102258.16;5202357;28;20025;-73
2021/11/05 08:43:55;;;;;;;18.88;6.47;;;;;;;10.88;100.00;102269.50;5202879;28;20398;-73
2021/11/05 08:46:27;;;;;;;;;;;;;;;11.86;100.00;102271.56;5201770;28;20110;-73
2021/11/05 08:49:02;;;;;;;15.82;6.20;;;;;;;12.02;100.00;102257.56;5201588;28;20450;-73
2021/11/05 08:51:33;;;;;;;13.50;5.63;;;;;;;12.38;100.00;102266.72;5201682;28;20041;-74
2021/11/05 08:54:03;;;;;;;15.13;5.38;;;;;;;12.59;100.00;102270.09;5201131;28;20028;-73
2021/11/05 08:56:34;;;;;;;12.27;4.93;;;;;;;13.02;100.00;102275.94;5200984;28;20025;-74
2021/11/05 08:59:05;;;;;;;19.30;5.43;;;;;;;13.00;100.00;102280.59;5200695;28;20167;-73
2021/11/05 09:01:35;;;;;;;13.38;4.65;;;;;;;13.52;100.00;102289.91;5201265;28;20059;-73
2021/11/05 09:04:07;;;;;;;11.32;4.65;;;;;;;13.62;100.00;102290.72;5201034;28;20061;-74
2021/11/05 09:06:39;;;;;;;11.13;3.72;;;;;;;13.99;100.00;102287.03;5179423;28;20022;-73
2021/11/05 09:09:10;;;;;;;13.40;3.88;;;;;;;14.17;100.00;102289.75;5200761;28;20025;-74
2021/11/05 09:11:40;;;;;;;16.98;7.82;;;;;;;14.64;100.00;102292.19;5200923;28;20026;-73
2021/11/05 09:14:11;;;;;;;18.67;6.72;;;;;;;14.45;100.00;102298.59;5201059;28;20017;-73
2021/11/05 09:16:42;;;;;;;35.15;17.10;;;;;;;14.31;100.00;102294.59;5200908;28;20049;-73
2021/11/05 09:19:13;;;;;;;39.55;15.57;;;;;;;14.92;100.00;102299.13;5201273;28;20048;-73
2021/11/05 09:21:43;;;;;;;56.15;19.98;;;;;;;14.25;100.00;102301.44;5200723;28;20080;-73
2021/11/05 09:24:14;;;;;;;128.45;43.63;;;;;;;14.09;100.00;102301.31;5201006;28;20021;-73
2021/11/05 09:26:44;;;;;;;158.00;50.00;;;;;;;14.14;100.00;102306.25;5201137;28;20379;-73
2021/11/05 09:29:17;;;;;;;63.92;19.17;;;;;;;14.71;100.00;102312.19;5200614;28;20531;-73
2021/11/05 09:31:48;;;;;;;161.98;51.88;;;;;;;14.42;100.00;102309.72;5200558;28;20030;-73
2021/11/05 09:34:19;;;;;;;23.33;11.27;;;;;;;14.83;100.00;102318.16;5199773;28;20025;-73
2021/11/05 09:36:49;;;;;;;25.23;15.93;;;;;;;14.76;100.00;102315.25;5199630;28;20638;-73
2021/11/05 09:39:20;;;;;;;15.38;9.00;;;;;;;14.04;100.00;102318.97;5199063;28;20026;-73
2021/11/05 09:41:50;;;;;;;17.10;6.28;;;;;;;14.17;100.00;102322.13;5200046;28;20025;-73
2021/11/05 09:44:22;;;;;;;20.45;5.38;;;;;;;14.52;100.00;102320.47;5199398;28;20578;-73
2021/11/05 09:46:53;;;;;;;20.13;6.82;;;;;;;14.23;100.00;102321.53;5199721;28;20028;-73
2021/11/05 09:49:23;;;;;;;15.70;5.28;;;;;;;14.02;100.00;102329.06;5199145;28;20033;-73
2021/11/05 09:51:59;;;;;;;17.35;4.30;;;;;;;14.05;100.00;102334.16;5199223;28;20033;-73
2021/11/05 09:54:32;;;;;;;21.40;4.18;;;;;;;13.38;100.00;102336.25;5186285;28;20379;-73
2021/11/05 09:57:04;;;;;;;20.35;4.93;;;;;;;12.71;100.00;102332.72;5198922;28;20108;-73
2021/11/05 09:59:34;;;;;;;16.80;4.63;;;;;;;12.25;100.00;102338.81;5199716;28;20403;-72
2021/11/05 10:02:05;;;;;;;22.88;4.50;;;;;;;11.87;100.00;102340.47;5199519;28;20018;-73
2021/11/05 10:04:37;;;;;;;14.65;4.93;;;;;;;11.85;100.00;102348.69;5199322;28;20042;-73
2021/11/05 10:07:10;;;;;;;16.85;4.57;;;;;;;11.92;100.00;102357.91;5199464;28;20079;-73
2021/11/05 10:09:43;;;;;;;15.25;4.60;;;;;;;11.68;100.00;102360.06;5198960;28;20037;-72
2021/11/05 10:12:17;;;;;;;22.77;5.70;;;;;;;11.68;100.00;102363.59;5199526;28;20021;-73
2021/11/05 10:15:00;;;;;;;14.77;4.43;;;;;;;11.57;100.00;102369.09;5181795;28;20033;-73
2021/11/05 10:17:32;;;;;;;18.73;4.65;;;;;;;11.64;100.00;102370.22;5199230;28;20467;-72
2021/11/05 10:20:07;;;;;;;23.52;5.60;;;;;;;11.60;100.00;102371.50;5198858;28;20040;-73
2021/11/05 10:22:47;;;;;;;33.72;11.93;;;;;;;11.56;100.00;102372.75;5198293;28;20097;-72
2021/11/05 10:25:37;;;;;;;16.77;5.75;;;;;;;11.53;100.00;102380.22;5180859;28;20040;-73
2021/11/05 10:28:17;;;;;;;18.92;5.45;;;;;;;11.51;100.00;102383.06;5180814;28;20018;-72
2021/11/05 10:30:51;;;;;;;24.00;6.68;;;;;;;11.70;100.00;102376.03;5198633;28;20037;-72
2021/11/05 10:33:24;;;;;;;16.58;4.40;;;;;;;11.76;100.00;102386.28;5199000;28;20025;-72
2021/11/05 10:35:57;;;;;;;20.17;4.53;;;;;;;11.76;100.00;102388.97;5199344;28;20032;-73
2021/11/05 10:38:30;;;;;;;17.42;3.65;;;;;;;11.63;100.00;102387.34;5185922;28;20075;-72
2021/11/05 10:41:03;;;;;;;20.80;3.85;;;;;;;11.61;100.00;102397.41;5198764;28;20025;-73
2021/11/05 10:43:42;;;;;;;12.10;3.92;;;;;;;11.51;100.00;102396.50;5198028;28;20108;-72
2021/11/05 10:46:30;;;;;;;19.27;5.10;;;;;;;11.44;100.00;102394.47;5198978;28;20029;-72
2021/11/05 10:49:06;;;;;;;18.48;3.92;;;;;;;11.47;100.00;102395.06;5198678;28;20107;-72
2021/11/05 10:51:36;;;;;;;24.10;4.75;;;;;;;11.48;100.00;102399.44;5198272;28;20036;-73
2021/11/05 10:54:07;;;;;;;18.75;4.50;;;;;;;11.61;100.00;102400.09;5198402;28;20033;-72
2021/11/05 10:56:38;;;;;;;15.63;4.80;;;;;;;11.65;100.00;102403.38;5198167;28;20104;-72
2021/11/05 10:59:10;;;;;;;18.02;6.15;;;;;;;11.59;100.00;102398.50;5197657;28;20367;-72
2021/11/05 11:01:43;;;;;;;24.20;4.75;;;;;;;11.58;100.00;102397.66;5197588;28;20120;-72
2021/11/05 11:04:13;;;;;;;14.00;6.15;;;;;;;11.57;100.00;102395.97;5184321;28;20022;-73
2021/11/05 11:06:48;;;;;;;16.58;3.95;;;;;;;11.58;100.00;102407.56;5198003;28;20485;-73
2021/11/05 11:09:23;;;;;;;16.40;5.25;;;;;;;11.60;100.00;102405.59;5198562;28;20225;-72
2021/11/05 11:11:58;;;;;;;17.30;4.05;;;;;;;11.72;100.00;102409.88;5181445;28;20104;-73
2021/11/05 11:14:31;;;;;;;16.75;4.53;;;;;;;11.87;100.00;102408.56;5197510;28;20104;-72
2021/11/05 11:17:02;;;;;;;13.23;4.28;;;;;;;12.04;100.00;102415.09;5198230;28;20385;-72
2021/11/05 11:19:36;;;;;;;16.90;4.35;;;;;;;12.14;100.00;102409.75;5198735;28;20057;-72
2021/11/05 11:22:09;;;;;;;11.48;3.92;;;;;;;12.29;100.00;102412.88;5198354;28;20029;-72
2021/11/05 11:24:41;;;;;;;12.77;3.15;;;;;;;12.24;100.00;102415.16;5197989;28;20026;-72
2021/11/05 11:27:12;;;;;;;9.48;3.00;;;;;;;12.13;100.00;102414.28;5198128;28;20044;-73